sensor_id;sensor_type;location;lat;lon;timestamp;P1;P2;P0
65556;PMS3003;52200;53.490;14.376;2024-02-04T00:02:22;11.50;2.50;1.75
65556;PMS3003;52200;53.490;14.376;2024-02-04T00:04:50;13.20;5.20;2.00
65556;PMS3003;52200;53.490;14.376;2024-02-04T00:07:15;13.20;5.80;2.00
65556;PMS3003;52200;53.490;14.376;2024-02-04T00:09:41;18.25;6.00;2.75
65556;PMS3003;52200;53.490;14.376;2024-02-04T00:12:08;13.80;5.60;2.60
65556;PMS3003;52200;53.490;14.376;2024-02-04T00:14:37;15.60;6.20;3.00
65556;PMS3003;52200;53.490;14.376;2024-02-04T00:17:02;13.00;5.75;2.00
65556;PMS3003;52200;53.490;14.376;2024-02-04T00:19:28;16.40;5.80;2.80
65556;PMS3003;52200;53.490;14.376;2024-02-04T00:21:54;15.00;6.00;3.00
65556;PMS3003;52200;53.490;14.376;2024-02-04T00:24:19;11.75;3.50;2.00
65556;PMS3003;52200;53.490;14.376;2024-02-04T00:26:45;11.75;5.00;2.00
65556;PMS3003;52200;53.490;14.376;2024-02-04T00:29:11;14.25;2.00;1.00
65556;PMS3003;52200;53.490;14.376;2024-02-04T00:31:36;11.00;2.25;1.00
65556;PMS3003;52200;53.490;14.376;2024-02-04T00:34:02;10.75;3.75;1.75
65556;PMS3003;52200;53.490;14.376;2024-02-04T00:36:27;10.25;1.25;1.00
65556;PMS3003;52200;53.490;14.376;2024-02-04T00:38:53;11.50;2.50;1.00
65556;PMS3003;52200;53.490;14.376;2024-02-04T00:41:18;11.75;2.50;1.00
65556;PMS3003;52200;53.490;14.376;2024-02-04T00:43:43;7.25;0.75;0.00
65556;PMS3003;52200;53.490;14.376;2024-02-04T00:46:09;13.75;2.00;0.00
65556;PMS3003;52200;53.490;14.376;2024-02-04T00:48:35;11.00;2.00;0.20
65556;PMS3003;52200;53.490;14.376;2024-02-04T00:51:02;9.80;1.00;0.00
65556;PMS3003;52200;53.490;14.376;2024-02-04T00:53:28;10.20;3.00;0.00
65556;PMS3003;52200;53.490;14.376;2024-02-04T00:55:58;10.00;2.00;0.00
65556;PMS3003;52200;53.490;14.376;2024-02-04T00:58:27;10.80;1.80;0.00
65556;PMS3003;52200;53.490;14.376;2024-02-04T01:00:53;11.75;1.75;0.00
65556;PMS3003;52200;53.490;14.376;2024-02-04T01:03:18;12.75;1.50;0.00
65556;PMS3003;52200;53.490;14.376;2024-02-04T01:05:44;11.25;1.00;0.00
65556;PMS3003;52200;53.490;14.376;2024-02-04T01:08:09;9.75;1.00;1.00
65556;PMS3003;52200;53.490;14.376;2024-02-04T01:10:34;8.00;0.75;0.25
65556;PMS3003;52200;53.490;14.376;2024-02-04T01:13:00;11.25;1.75;0.00
65556;PMS3003;52200;53.490;14.376;2024-02-04T01:15:25;12.00;1.00;0.00
65556;PMS3003;52200;53.490;14.376;2024-02-04T01:17:51;14.50;1.25;0.00
65556;PMS3003;52200;53.490;14.376;2024-02-04T01:20:17;10.60;1.60;0.00
65556;PMS3003;52200;53.490;14.376;2024-02-04T01:22:43;14.60;1.80;0.00
65556;PMS3003;52200;53.490;14.376;2024-02-04T01:25:09;7.00;1.00;0.00
65556;PMS3003;52200;53.490;14.376;2024-02-04T01:27:34;7.00;1.00;0.00
65556;PMS3003;52200;53.490;14.376;2024-02-04T01:30:00;9.50;1.75;0.00
65556;PMS3003;52200;53.490;14.376;2024-02-04T01:32:25;9.00;0.25;0.00
65556;PMS3003;52200;53.490;14.376;2024-02-04T01:34:51;8.75;1.00;0.00
65556;PMS3003;52200;53.490;14.376;2024-02-04T01:37:16;12.00;1.00;0.00
65556;PMS3003;52200;53.490;14.376;2024-02-04T01:39:41;10.75;1.75;0.00
65556;PMS3003;52200;53.490;14.376;2024-02-04T01:42:07;10.00;1.00;0.00
65556;PMS3003;52200;53.490;14.376;2024-02-04T01:44:33;9.80;2.00;0.00
65556;PMS3003;52200;53.490;14.376;2024-02-04T01:46:58;9.25;1.75;0.00
65556;PMS3003;52200;53.490;14.376;2024-02-04T01:49:24;10.50;2.00;0.00
65556;PMS3003;52200;53.490;14.376;2024-02-04T01:51:50;14.40;1.60;0.00
65556;PMS3003;52200;53.490;14.376;2024-02-04T01:54:17;8.80;1.00;0.00
65556;PMS3003;52200;53.490;14.376;2024-02-04T01:56:42;13.25;1.50;0.75
65556;PMS3003;52200;53.490;14.376;2024-02-04T01:59:11;10.00;2.60;0.00
65556;PMS3003;52200;53.490;14.376;2024-02-04T02:01:38;12.40;2.00;0.00
65556;PMS3003;52200;53.490;14.376;2024-02-04T02:04:04;10.00;0.75;0.00
65556;PMS3003;52200;53.490;14.376;2024-02-04T02:06:30;11.00;2.00;0.00
65556;PMS3003;52200;53.490;14.376;2024-02-04T02:08:56;9.60;1.20;0.20
65556;PMS3003;52200;53.490;14.376;2024-02-04T02:11:45;9.20;1.00;0.00
65556;PMS3003;52200;53.490;14.376;2024-02-04T02:14:13;10.80;1.00;0.00
65556;PMS3003;52200;53.490;14.376;2024-02-04T02:16:41;10.00;1.00;0.00
65556;PMS3003;52200;53.490;14.376;2024-02-04T02:19:18;12.20;2.40;0.40
65556;PMS3003;52200;53.490;14.376;2024-02-04T02:24:48;10.20;1.80;0.00
65556;PMS3003;52200;53.490;14.376;2024-02-04T02:27:16;11.20;2.00;0.00
65556;PMS3003;52200;53.490;14.376;2024-02-04T02:29:41;10.75;0.75;0.00
65556;PMS3003;52200;53.490;14.376;2024-02-04T02:32:07;10.25;1.00;0.00
65556;PMS3003;52200;53.490;14.376;2024-02-04T02:34:33;8.20;1.00;0.00
65556;PMS3003;52200;53.490;14.376;2024-02-04T02:39:34;19.80;2.20;0.00
65556;PMS3003;52200;53.490;14.376;2024-02-04T02:42:07;10.40;1.00;0.00
65556;PMS3003;52200;53.490;14.376;2024-02-04T02:44:36;10.00;1.20;0.00
65556;PMS3003;52200;53.490;14.376;2024-02-04T02:47:04;9.60;1.20;0.00
65556;PMS3003;52200;53.490;14.376;2024-02-04T02:49:31;8.80;1.60;0.60
65556;PMS3003;52200;53.490;14.376;2024-02-04T02:51:57;12.00;2.75;0.00
65556;PMS3003;52200;53.490;14.376;2024-02-04T02:54:22;9.50;1.00;0.00
65556;PMS3003;52200;53.490;14.376;2024-02-04T02:56:48;11.00;1.00;0.00
65556;PMS3003;52200;53.490;14.376;2024-02-04T02:59:13;9.00;1.00;0.00
65556;PMS3003;52200;53.490;14.376;2024-02-04T03:01:39;10.75;1.75;0.00
65556;PMS3003;52200;53.490;14.376;2024-02-04T03:04:05;11.00;1.00;0.00
65556;PMS3003;52200;53.490;14.376;2024-02-04T03:06:31;11.00;1.25;0.00
65556;PMS3003;52200;53.490;14.376;2024-02-04T03:08:56;12.75;2.00;0.00
65556;PMS3003;52200;53.490;14.376;2024-02-04T03:11:21;7.00;1.00;0.00
65556;PMS3003;52200;53.490;14.376;2024-02-04T03:13:47;10.00;1.00;0.00
65556;PMS3003;52200;53.490;14.376;2024-02-04T03:16:12;14.00;1.00;0.50
65556;PMS3003;52200;53.490;14.376;2024-02-04T03:18:39;10.50;2.00;0.00
65556;PMS3003;52200;53.490;14.376;2024-02-04T03:21:11;11.00;1.80;0.00
65556;PMS3003;52200;53.490;14.376;2024-02-04T03:23:37;11.40;1.80;0.00
65556;PMS3003;52200;53.490;14.376;2024-02-04T03:26:03;11.00;1.50;0.00
65556;PMS3003;52200;53.490;14.376;2024-02-04T03:28:28;10.50;2.25;0.00
65556;PMS3003;52200;53.490;14.376;2024-02-04T03:30:53;10.50;1.75;0.00
65556;PMS3003;52200;53.490;14.376;2024-02-04T03:33:19;11.00;1.75;0.00
65556;PMS3003;52200;53.490;14.376;2024-02-04T03:35:44;11.00;2.00;0.00
65556;PMS3003;52200;53.490;14.376;2024-02-04T03:38:10;10.50;1.00;0.00
65556;PMS3003;52200;53.490;14.376;2024-02-04T03:40:35;8.00;1.50;0.00
65556;PMS3003;52200;53.490;14.376;2024-02-04T03:43:01;12.50;1.00;0.00
65556;PMS3003;52200;53.490;14.376;2024-02-04T03:45:26;11.80;1.80;0.00
65556;PMS3003;52200;53.490;14.376;2024-02-04T03:47:52;12.00;2.00;0.00
65556;PMS3003;52200;53.490;14.376;2024-02-04T03:50:17;9.25;1.00;0.50
65556;PMS3003;52200;53.490;14.376;2024-02-04T03:52:43;9.25;1.25;0.00
65556;PMS3003;52200;53.490;14.376;2024-02-04T03:55:09;11.00;2.00;0.00
65556;PMS3003;52200;53.490;14.376;2024-02-04T03:57:34;9.00;2.00;0.25
65556;PMS3003;52200;53.490;14.376;2024-02-04T04:00:00;11.50;2.00;0.25
65556;PMS3003;52200;53.490;14.376;2024-02-04T04:02:25;10.50;0.50;0.00
65556;PMS3003;52200;53.490;14.376;2024-02-04T04:04:50;9.50;1.25;0.00
65556;PMS3003;52200;53.490;14.376;2024-02-04T04:07:16;10.00;3.00;0.00
65556;PMS3003;52200;53.490;14.376;2024-02-04T04:09:41;10.50;1.75;0.00
65556;PMS3003;52200;53.490;14.376;2024-02-04T04:12:07;11.75;1.50;0.75
65556;PMS3003;52200;53.490;14.376;2024-02-04T04:14:32;10.00;2.00;1.00
65556;PMS3003;52200;53.490;14.376;2024-02-04T04:16:57;17.50;2.25;1.00
65556;PMS3003;52200;53.490;14.376;2024-02-04T04:19:23;13.50;2.00;0.00
65556;PMS3003;52200;53.490;14.376;2024-02-04T04:21:49;15.00;2.60;0.00
65556;PMS3003;52200;53.490;14.376;2024-02-04T04:24:15;8.50;1.00;0.00
65556;PMS3003;52200;53.490;14.376;2024-02-04T04:26:44;10.60;1.20;0.00
65556;PMS3003;52200;53.490;14.376;2024-02-04T04:29:10;10.00;1.25;0.00
65556;PMS3003;52200;53.490;14.376;2024-02-04T04:31:35;11.00;1.75;0.00
65556;PMS3003;52200;53.490;14.376;2024-02-04T04:34:01;11.75;1.00;0.75
65556;PMS3003;52200;53.490;14.376;2024-02-04T04:36:26;13.75;2.00;0.00
65556;PMS3003;52200;53.490;14.376;2024-02-04T04:38:51;13.50;2.75;0.50
65556;PMS3003;52200;53.490;14.376;2024-02-04T04:41:17;9.75;1.25;0.25
65556;PMS3003;52200;53.490;14.376;2024-02-04T04:43:42;7.00;1.00;0.00
65556;PMS3003;52200;53.490;14.376;2024-02-04T04:46:08;12.75;3.00;0.00
65556;PMS3003;52200;53.490;14.376;2024-02-04T04:48:33;9.00;2.00;1.00
65556;PMS3003;52200;53.490;14.376;2024-02-04T04:50:59;8.00;0.50;0.00
65556;PMS3003;52200;53.490;14.376;2024-02-04T04:53:24;13.75;2.00;0.00
65556;PMS3003;52200;53.490;14.376;2024-02-04T04:55:49;10.50;1.00;0.00
65556;PMS3003;52200;53.490;14.376;2024-02-04T04:58:15;11.00;2.00;0.00
65556;PMS3003;52200;53.490;14.376;2024-02-04T05:00:40;9.75;2.00;1.00
65556;PMS3003;52200;53.490;14.376;2024-02-04T05:03:06;11.75;1.00;0.00
65556;PMS3003;52200;53.490;14.376;2024-02-04T05:05:31;12.00;2.25;0.00
65556;PMS3003;52200;53.490;14.376;2024-02-04T05:07:56;12.00;2.25;0.75
65556;PMS3003;52200;53.490;14.376;2024-02-04T05:10:22;10.75;3.00;1.00
65556;PMS3003;52200;53.490;14.376;2024-02-04T05:12:47;12.00;3.00;1.25
65556;PMS3003;52200;53.490;14.376;2024-02-04T05:15:13;9.50;1.50;0.25
65556;PMS3003;52200;53.490;14.376;2024-02-04T05:17:38;12.50;1.00;0.00
65556;PMS3003;52200;53.490;14.376;2024-02-04T05:20:04;11.75;3.00;0.00
65556;PMS3003;52200;53.490;14.376;2024-02-04T05:22:30;13.00;3.00;1.00
65556;PMS3003;52200;53.490;14.376;2024-02-04T05:24:56;11.00;2.50;0.00
65556;PMS3003;52200;53.490;14.376;2024-02-04T05:27:21;9.50;1.50;1.00
65556;PMS3003;52200;53.490;14.376;2024-02-04T05:29:47;11.50;2.50;0.00
65556;PMS3003;52200;53.490;14.376;2024-02-04T05:32:12;9.00;2.00;0.00
65556;PMS3003;52200;53.490;14.376;2024-02-04T05:34:37;8.00;1.00;0.00
65556;PMS3003;52200;53.490;14.376;2024-02-04T05:37:03;12.25;2.00;0.75
65556;PMS3003;52200;53.490;14.376;2024-02-04T05:39:28;10.25;2.25;0.00
65556;PMS3003;52200;53.490;14.376;2024-02-04T05:41:54;11.25;1.00;0.00
65556;PMS3003;52200;53.490;14.376;2024-02-04T05:44:19;11.00;0.75;0.00
65556;PMS3003;52200;53.490;14.376;2024-02-04T05:46:45;11.00;1.25;0.00
65556;PMS3003;52200;53.490;14.376;2024-02-04T05:49:11;12.60;1.80;0.00
65556;PMS3003;52200;53.490;14.376;2024-02-04T05:51:39;8.00;2.00;0.00
65556;PMS3003;52200;53.490;14.376;2024-02-04T05:54:05;8.00;2.00;0.00
65556;PMS3003;52200;53.490;14.376;2024-02-04T05:56:31;8.00;1.00;0.00
65556;PMS3003;52200;53.490;14.376;2024-02-04T05:58:57;10.20;1.00;0.00
65556;PMS3003;52200;53.490;14.376;2024-02-04T06:01:22;10.25;2.00;0.00
65556;PMS3003;52200;53.490;14.376;2024-02-04T06:03:48;8.75;1.00;0.00
65556;PMS3003;52200;53.490;14.376;2024-02-04T06:06:17;8.00;1.00;0.00
65556;PMS3003;52200;53.490;14.376;2024-02-04T06:08:45;14.00;1.60;0.00
65556;PMS3003;52200;53.490;14.376;2024-02-04T06:11:13;12.20;1.00;0.00
65556;PMS3003;52200;53.490;14.376;2024-02-04T06:13:40;14.40;2.60;0.00
65556;PMS3003;52200;53.490;14.376;2024-02-04T06:16:07;10.00;1.60;0.00
65556;PMS3003;52200;53.490;14.376;2024-02-04T06:18:34;10.40;1.00;0.00
65556;PMS3003;52200;53.490;14.376;2024-02-04T06:21:02;7.80;1.80;0.60
65556;PMS3003;52200;53.490;14.376;2024-02-04T06:23:28;10.60;2.60;0.00
65556;PMS3003;52200;53.490;14.376;2024-02-04T06:25:53;10.50;0.75;0.00
65556;PMS3003;52200;53.490;14.376;2024-02-04T06:28:19;10.50;2.00;0.75
65556;PMS3003;52200;53.490;14.376;2024-02-04T06:30:44;10.00;1.00;0.00
65556;PMS3003;52200;53.490;14.376;2024-02-04T06:33:10;10.75;2.00;0.00
65556;PMS3003;52200;53.490;14.376;2024-02-04T06:35:35;14.50;2.00;0.25
65556;PMS3003;52200;53.490;14.376;2024-02-04T06:38:00;10.75;1.00;0.00
65556;PMS3003;52200;53.490;14.376;2024-02-04T06:40:26;11.50;2.00;0.00
65556;PMS3003;52200;53.490;14.376;2024-02-04T06:42:51;11.00;3.00;1.00
65556;PMS3003;52200;53.490;14.376;2024-02-04T06:45:17;9.75;1.75;0.00
65556;PMS3003;52200;53.490;14.376;2024-02-04T06:47:45;12.50;2.00;0.00
65556;PMS3003;52200;53.490;14.376;2024-02-04T06:50:11;11.60;3.40;0.80
65556;PMS3003;52200;53.490;14.376;2024-02-04T06:52:39;7.60;0.40;0.00
65556;PMS3003;52200;53.490;14.376;2024-02-04T06:55:05;7.80;1.40;0.00
65556;PMS3003;52200;53.490;14.376;2024-02-04T06:57:31;10.00;2.25;0.00
65556;PMS3003;52200;53.490;14.376;2024-02-04T06:59:56;9.00;2.00;0.75
65556;PMS3003;52200;53.490;14.376;2024-02-04T07:02:22;10.00;2.50;1.00
65556;PMS3003;52200;53.490;14.376;2024-02-04T07:04:47;12.00;2.50;1.00
65556;PMS3003;52200;53.490;14.376;2024-02-04T07:07:12;10.75;1.00;0.00
65556;PMS3003;52200;53.490;14.376;2024-02-04T07:09:38;9.50;2.75;1.00
65556;PMS3003;52200;53.490;14.376;2024-02-04T07:12:03;12.00;2.00;0.00
65556;PMS3003;52200;53.490;14.376;2024-02-04T07:14:29;10.80;1.80;0.20
65556;PMS3003;52200;53.490;14.376;2024-02-04T07:16:55;10.00;1.00;0.50
65556;PMS3003;52200;53.490;14.376;2024-02-04T07:19:20;11.50;0.50;0.00
65556;PMS3003;52200;53.490;14.376;2024-02-04T07:21:45;10.75;1.75;0.50
65556;PMS3003;52200;53.490;14.376;2024-02-04T07:24:11;12.50;2.75;0.75
65556;PMS3003;52200;53.490;14.376;2024-02-04T07:26:37;9.00;1.25;0.75
65556;PMS3003;52200;53.490;14.376;2024-02-04T07:29:02;10.00;2.50;0.00
65556;PMS3003;52200;53.490;14.376;2024-02-04T07:31:27;8.75;1.00;0.00
65556;PMS3003;52200;53.490;14.376;2024-02-04T07:33:53;9.25;1.00;0.00
65556;PMS3003;52200;53.490;14.376;2024-02-04T07:36:18;8.50;1.25;0.25
65556;PMS3003;52200;53.490;14.376;2024-02-04T07:38:43;11.00;1.25;0.50
65556;PMS3003;52200;53.490;14.376;2024-02-04T07:41:09;10.50;3.00;0.25
65556;PMS3003;52200;53.490;14.376;2024-02-04T07:43:34;9.75;1.50;0.00
65556;PMS3003;52200;53.490;14.376;2024-02-04T07:46:00;10.50;1.00;0.25
65556;PMS3003;52200;53.490;14.376;2024-02-04T07:48:25;12.75;2.00;0.00
65556;PMS3003;52200;53.490;14.376;2024-02-04T07:50:51;8.00;2.00;0.60
65556;PMS3003;52200;53.490;14.376;2024-02-04T07:53:17;9.75;1.50;0.50
65556;PMS3003;52200;53.490;14.376;2024-02-04T07:55:42;8.00;1.00;0.00
65556;PMS3003;52200;53.490;14.376;2024-02-04T07:58:07;7.25;1.00;0.25
65556;PMS3003;52200;53.490;14.376;2024-02-04T08:00:33;10.50;2.00;1.00
65556;PMS3003;52200;53.490;14.376;2024-02-04T08:02:58;7.00;0.25;0.00
65556;PMS3003;52200;53.490;14.376;2024-02-04T08:05:24;7.00;1.00;0.00
65556;PMS3003;52200;53.490;14.376;2024-02-04T08:07:49;8.50;1.00;0.00
65556;PMS3003;52200;53.490;14.376;2024-02-04T08:10:15;8.25;1.00;0.00
65556;PMS3003;52200;53.490;14.376;2024-02-04T08:12:41;9.80;2.00;0.20
65556;PMS3003;52200;53.490;14.376;2024-02-04T08:15:06;7.00;0.75;0.00
65556;PMS3003;52200;53.490;14.376;2024-02-04T08:17:32;9.80;0.00;0.00
65556;PMS3003;52200;53.490;14.376;2024-02-04T08:19:58;11.20;0.60;0.00
65556;PMS3003;52200;53.490;14.376;2024-02-04T08:22:24;12.00;2.00;0.00
65556;PMS3003;52200;53.490;14.376;2024-02-04T08:24:49;8.00;2.00;0.00
65556;PMS3003;52200;53.490;14.376;2024-02-04T08:27:15;7.75;1.50;0.00
65556;PMS3003;52200;53.490;14.376;2024-02-04T08:29:43;9.80;1.00;0.00
65556;PMS3003;52200;53.490;14.376;2024-02-04T08:32:09;7.00;1.00;0.80
65556;PMS3003;52200;53.490;14.376;2024-02-04T08:34:34;10.75;2.00;0.00
65556;PMS3003;52200;53.490;14.376;2024-02-04T08:37:00;8.00;1.00;0.00
65556;PMS3003;52200;53.490;14.376;2024-02-04T08:39:25;7.75;1.50;0.00
65556;PMS3003;52200;53.490;14.376;2024-02-04T08:41:51;8.40;1.00;0.00
65556;PMS3003;52200;53.490;14.376;2024-02-04T08:44:17;8.75;0.75;0.00
65556;PMS3003;52200;53.490;14.376;2024-02-04T08:46:42;9.75;2.00;0.25
65556;PMS3003;52200;53.490;14.376;2024-02-04T08:49:08;9.00;1.50;0.00
65556;PMS3003;52200;53.490;14.376;2024-02-04T08:51:33;7.25;1.00;0.00
65556;PMS3003;52200;53.490;14.376;2024-02-04T08:53:58;8.50;1.00;0.00
65556;PMS3003;52200;53.490;14.376;2024-02-04T08:56:24;7.25;0.50;0.00
65556;PMS3003;52200;53.490;14.376;2024-02-04T08:58:49;11.00;2.00;0.00
65556;PMS3003;52200;53.490;14.376;2024-02-04T09:01:15;8.75;1.75;0.00
65556;PMS3003;52200;53.490;14.376;2024-02-04T09:03:40;6.50;0.50;0.00
65556;PMS3003;52200;53.490;14.376;2024-02-04T09:06:06;9.00;1.75;0.25
65556;PMS3003;52200;53.490;14.376;2024-02-04T09:08:31;9.00;2.00;1.00
65556;PMS3003;52200;53.490;14.376;2024-02-04T09:10:57;10.50;1.00;0.00
65556;PMS3003;52200;53.490;14.376;2024-02-04T09:13:22;11.00;1.00;0.00
65556;PMS3003;52200;53.490;14.376;2024-02-04T09:15:48;16.50;2.00;0.00
65556;PMS3003;52200;53.490;14.376;2024-02-04T09:18:15;7.80;1.20;0.00
65556;PMS3003;52200;53.490;14.376;2024-02-04T09:20:40;11.00;1.75;0.50
65556;PMS3003;52200;53.490;14.376;2024-02-04T09:23:06;9.00;1.00;0.00
65556;PMS3003;52200;53.490;14.376;2024-02-04T09:25:31;10.25;1.00;0.00
65556;PMS3003;52200;53.490;14.376;2024-02-04T09:27:57;9.00;1.75;0.00
65556;PMS3003;52200;53.490;14.376;2024-02-04T09:30:22;11.00;2.00;0.00
65556;PMS3003;52200;53.490;14.376;2024-02-04T09:32:48;14.00;6.00;1.00
65556;PMS3003;52200;53.490;14.376;2024-02-04T09:35:13;7.50;1.00;0.00
65556;PMS3003;52200;53.490;14.376;2024-02-04T09:37:39;12.00;1.00;0.00
65556;PMS3003;52200;53.490;14.376;2024-02-04T09:40:04;9.00;1.00;0.00
65556;PMS3003;52200;53.490;14.376;2024-02-04T09:42:30;11.00;2.40;0.80
65556;PMS3003;52200;53.490;14.376;2024-02-04T09:44:56;8.60;1.00;0.00
65556;PMS3003;52200;53.490;14.376;2024-02-04T09:47:22;11.50;3.00;0.00
65556;PMS3003;52200;53.490;14.376;2024-02-04T09:49:48;11.50;3.00;0.00
65556;PMS3003;52200;53.490;14.376;2024-02-04T09:52:13;9.75;1.50;0.00
65556;PMS3003;52200;53.490;14.376;2024-02-04T09:54:45;6.80;0.60;0.00
65556;PMS3003;52200;53.490;14.376;2024-02-04T09:57:15;10.60;1.00;0.00
65556;PMS3003;52200;53.490;14.376;2024-02-04T09:59:41;8.20;1.00;0.00
65556;PMS3003;52200;53.490;14.376;2024-02-04T10:02:08;10.60;2.20;0.60
65556;PMS3003;52200;53.490;14.376;2024-02-04T10:04:35;11.60;0.60;0.00
65556;PMS3003;52200;53.490;14.376;2024-02-04T10:07:00;7.00;1.00;0.00
65556;PMS3003;52200;53.490;14.376;2024-02-04T10:09:26;8.40;2.00;0.00
65556;PMS3003;52200;53.490;14.376;2024-02-04T10:11:52;7.00;1.00;0.00
65556;PMS3003;52200;53.490;14.376;2024-02-04T10:14:17;7.50;1.00;0.00
65556;PMS3003;52200;53.490;14.376;2024-02-04T10:16:45;8.40;0.80;0.00
65556;PMS3003;52200;53.490;14.376;2024-02-04T10:19:10;10.75;2.00;0.00
65556;PMS3003;52200;53.490;14.376;2024-02-04T10:21:36;7.80;0.40;0.00
65556;PMS3003;52200;53.490;14.376;2024-02-04T10:24:02;8.25;1.25;0.00
65556;PMS3003;52200;53.490;14.376;2024-02-04T10:26:28;8.00;1.25;0.00
65556;PMS3003;52200;53.490;14.376;2024-02-04T10:29:00;8.20;1.40;0.00
65556;PMS3003;52200;53.490;14.376;2024-02-04T10:31:26;9.00;1.25;0.00
65556;PMS3003;52200;53.490;14.376;2024-02-04T10:33:52;11.40;1.80;0.00
65556;PMS3003;52200;53.490;14.376;2024-02-04T10:36:17;8.75;2.50;0.00
65556;PMS3003;52200;53.490;14.376;2024-02-04T10:38:43;8.50;1.50;0.00
65556;PMS3003;52200;53.490;14.376;2024-02-04T10:41:10;8.00;1.00;0.00
65556;PMS3003;52200;53.490;14.376;2024-02-04T10:43:39;12.20;2.00;0.00
65556;PMS3003;52200;53.490;14.376;2024-02-04T10:46:17;11.20;2.20;0.20
65556;PMS3003;52200;53.490;14.376;2024-02-04T10:48:50;8.40;1.40;0.00
65556;PMS3003;52200;53.490;14.376;2024-02-04T10:51:21;12.20;2.00;0.00
65556;PMS3003;52200;53.490;14.376;2024-02-04T10:53:51;9.80;1.00;1.00
65556;PMS3003;52200;53.490;14.376;2024-02-04T10:56:19;12.20;2.20;0.00
65556;PMS3003;52200;53.490;14.376;2024-02-04T10:58:49;11.80;2.00;0.60
65556;PMS3003;52200;53.490;14.376;2024-02-04T11:01:17;12.00;3.60;0.20
65556;PMS3003;52200;53.490;14.376;2024-02-04T11:03:43;9.20;2.00;0.00
65556;PMS3003;52200;53.490;14.376;2024-02-04T11:06:10;11.20;3.00;0.00
65556;PMS3003;52200;53.490;14.376;2024-02-04T11:08:37;13.60;1.80;0.80
65556;PMS3003;52200;53.490;14.376;2024-02-04T11:11:04;12.20;3.20;1.00
65556;PMS3003;52200;53.490;14.376;2024-02-04T11:13:30;10.20;2.20;0.40
65556;PMS3003;52200;53.490;14.376;2024-02-04T11:15:57;9.00;1.80;1.00
65556;PMS3003;52200;53.490;14.376;2024-02-04T11:18:49;12.00;1.40;1.00
65556;PMS3003;52200;53.490;14.376;2024-02-04T11:21:40;9.20;1.00;0.00
65556;PMS3003;52200;53.490;14.376;2024-02-04T11:24:30;12.60;1.80;0.80
65556;PMS3003;52200;53.490;14.376;2024-02-04T11:27:02;8.40;2.00;1.00
65556;PMS3003;52200;53.490;14.376;2024-02-04T11:29:28;14.60;2.60;0.40
65556;PMS3003;52200;53.490;14.376;2024-02-04T11:31:53;11.00;2.00;0.00
65556;PMS3003;52200;53.490;14.376;2024-02-04T11:34:19;11.00;2.00;1.00
65556;PMS3003;52200;53.490;14.376;2024-02-04T11:36:45;12.40;2.20;1.00
65556;PMS3003;52200;53.490;14.376;2024-02-04T11:39:14;13.25;5.50;1.75
65556;PMS3003;52200;53.490;14.376;2024-02-04T11:41:49;12.00;1.80;1.00
65556;PMS3003;52200;53.490;14.376;2024-02-04T11:44:24;13.00;6.00;1.00
65556;PMS3003;52200;53.490;14.376;2024-02-04T11:46:51;11.60;2.60;1.00
65556;PMS3003;52200;53.490;14.376;2024-02-04T11:49:23;9.50;3.00;1.00
65556;PMS3003;52200;53.490;14.376;2024-02-04T11:51:50;9.00;2.20;0.20
65556;PMS3003;52200;53.490;14.376;2024-02-04T11:54:17;13.40;3.40;1.40
65556;PMS3003;52200;53.490;14.376;2024-02-04T11:56:48;9.00;2.00;1.00
65556;PMS3003;52200;53.490;14.376;2024-02-04T11:59:24;12.60;3.00;1.00
65556;PMS3003;52200;53.490;14.376;2024-02-04T12:01:54;10.60;2.80;0.40
65556;PMS3003;52200;53.490;14.376;2024-02-04T12:04:20;11.60;2.00;0.00
65556;PMS3003;52200;53.490;14.376;2024-02-04T12:06:47;11.40;2.40;0.60
65556;PMS3003;52200;53.490;14.376;2024-02-04T12:09:15;13.50;5.00;2.75
65556;PMS3003;52200;53.490;14.376;2024-02-04T12:11:43;9.40;2.00;0.40
65556;PMS3003;52200;53.490;14.376;2024-02-04T12:14:09;13.00;2.40;0.60
65556;PMS3003;52200;53.490;14.376;2024-02-04T12:16:35;11.60;2.60;1.00
65556;PMS3003;52200;53.490;14.376;2024-02-04T12:19:02;9.60;3.00;1.40
65556;PMS3003;52200;53.490;14.376;2024-02-04T12:21:31;13.60;4.00;2.00
65556;PMS3003;52200;53.490;14.376;2024-02-04T12:23:58;9.80;2.40;0.40
65556;PMS3003;52200;53.490;14.376;2024-02-04T12:26:24;10.40;2.60;0.60
65556;PMS3003;52200;53.490;14.376;2024-02-04T12:28:52;9.00;1.00;0.00
65556;PMS3003;52200;53.490;14.376;2024-02-04T12:31:18;12.40;3.60;1.00
65556;PMS3003;52200;53.490;14.376;2024-02-04T12:33:54;12.20;2.00;0.80
65556;PMS3003;52200;53.490;14.376;2024-02-04T12:36:22;11.00;2.40;0.00
65556;PMS3003;52200;53.490;14.376;2024-02-04T12:38:54;8.60;2.00;0.00
65556;PMS3003;52200;53.490;14.376;2024-02-04T12:41:21;13.40;3.40;1.20
65556;PMS3003;52200;53.490;14.376;2024-02-04T12:43:51;16.20;7.20;2.00
65556;PMS3003;52200;53.490;14.376;2024-02-04T12:46:24;10.80;3.20;1.00
65556;PMS3003;52200;53.490;14.376;2024-02-04T12:48:53;8.25;1.00;0.00
65556;PMS3003;52200;53.490;14.376;2024-02-04T12:51:25;10.80;2.00;1.00
65556;PMS3003;52200;53.490;14.376;2024-02-04T12:59:25;7.40;1.20;0.40
65556;PMS3003;52200;53.490;14.376;2024-02-04T13:01:57;12.20;1.40;0.00
65556;PMS3003;52200;53.490;14.376;2024-02-04T13:04:25;12.20;3.20;0.80
65556;PMS3003;52200;53.490;14.376;2024-02-04T13:06:52;8.00;2.00;1.00
65556;PMS3003;52200;53.490;14.376;2024-02-04T13:09:18;7.60;1.60;0.00
65556;PMS3003;52200;53.490;14.376;2024-02-04T13:11:44;11.60;1.40;0.40
65556;PMS3003;52200;53.490;14.376;2024-02-04T13:14:10;9.25;1.25;0.00
65556;PMS3003;52200;53.490;14.376;2024-02-04T13:16:35;9.25;1.25;0.00
65556;PMS3003;52200;53.490;14.376;2024-02-04T13:19:03;13.80;3.60;0.00
65556;PMS3003;52200;53.490;14.376;2024-02-04T13:21:29;10.00;2.20;0.00
65556;PMS3003;52200;53.490;14.376;2024-02-04T13:23:54;9.50;1.25;0.00
65556;PMS3003;52200;53.490;14.376;2024-02-04T13:26:20;9.00;2.00;1.00
65556;PMS3003;52200;53.490;14.376;2024-02-04T13:28:45;10.00;2.00;1.00
65556;PMS3003;52200;53.490;14.376;2024-02-04T13:31:11;12.75;4.00;1.00
65556;PMS3003;52200;53.490;14.376;2024-02-04T13:33:38;8.50;1.25;0.00
65556;PMS3003;52200;53.490;14.376;2024-02-04T13:36:04;13.00;2.00;1.00
65556;PMS3003;52200;53.490;14.376;2024-02-04T13:38:30;13.00;2.00;0.00
65556;PMS3003;52200;53.490;14.376;2024-02-04T13:40:55;11.75;3.50;1.00
65556;PMS3003;52200;53.490;14.376;2024-02-04T13:43:21;11.25;2.50;1.00
65556;PMS3003;52200;53.490;14.376;2024-02-04T13:45:46;13.00;4.50;1.00
65556;PMS3003;52200;53.490;14.376;2024-02-04T13:48:12;12.75;2.50;1.00
65556;PMS3003;52200;53.490;14.376;2024-02-04T13:50:37;13.50;3.25;1.00
65556;PMS3003;52200;53.490;14.376;2024-02-04T13:53:03;8.25;2.00;1.00
65556;PMS3003;52200;53.490;14.376;2024-02-04T13:55:28;11.00;3.50;1.00
65556;PMS3003;52200;53.490;14.376;2024-02-04T13:57:54;9.75;2.00;0.00
65556;PMS3003;52200;53.490;14.376;2024-02-04T14:00:20;9.25;2.00;0.00
65556;PMS3003;52200;53.490;14.376;2024-02-04T14:02:45;11.00;2.00;0.00
65556;PMS3003;52200;53.490;14.376;2024-02-04T14:05:10;10.75;3.00;0.00
65556;PMS3003;52200;53.490;14.376;2024-02-04T14:07:36;11.00;2.00;1.00
65556;PMS3003;52200;53.490;14.376;2024-02-04T14:10:02;11.40;3.40;0.00